createdAt,value
2022-09-07T00:01:00.344Z,12.39
2022-09-07T00:06:10.499Z,12.25
2022-09-07T00:11:15.814Z,12.05
2022-09-07T00:16:28.484Z,11.91
2022-09-07T00:21:31.572Z,11.80
2022-09-07T00:26:33.245Z,11.74
2022-09-07T00:31:35.569Z,11.75
2022-09-07T00:36:37.452Z,11.73
2022-09-07T00:41:39.588Z,11.69
2022-09-07T00:46:41.496Z,11.67
2022-09-07T00:51:57.987Z,11.65
2022-09-07T00:57:00.405Z,11.58
2022-09-07T01:02:02.596Z,11.49
2022-09-07T01:07:08.019Z,11.41
2022-09-07T01:12:09.733Z,11.32
2022-09-07T01:17:39.478Z,11.27
2022-09-07T01:22:53.967Z,11.24
2022-09-07T01:28:22.877Z,11.23
2022-09-07T01:33:35.908Z,11.24
2022-09-07T01:38:56.783Z,11.17
2022-09-07T01:44:22.941Z,11.06
2022-09-07T01:49:40.796Z,10.95
2022-09-07T01:54:50.343Z,10.87
2022-09-07T01:59:57.381Z,10.76
2022-09-07T02:05:10.279Z,10.61
2022-09-07T02:10:27.579Z,10.47
2022-09-07T02:15:47.144Z,10.43
2022-09-07T02:20:53.385Z,10.42
2022-09-07T02:26:10.664Z,10.49
2022-09-07T02:31:12.479Z,10.51
2022-09-07T02:36:17.726Z,10.48
2022-09-07T02:41:41.938Z,10.42
2022-09-07T02:47:10.298Z,10.35
2022-09-07T02:52:55.932Z,10.29
2022-09-07T02:58:24.345Z,10.23
2022-09-07T03:03:32.202Z,10.20
2022-09-07T03:08:43.549Z,10.21
2022-09-07T03:13:45.445Z,10.23
2022-09-07T03:18:50.283Z,10.23
2022-09-07T03:23:53.310Z,10.22
2022-09-07T03:28:55.724Z,10.20
2022-09-07T03:33:57.651Z,10.13
2022-09-07T03:38:59.612Z,10.02
2022-09-07T03:44:05.277Z,9.89
2022-09-07T03:49:07.065Z,9.80
2022-09-07T03:54:08.882Z,9.73
2022-09-07T04:04:49.399Z,9.81
2022-09-07T04:21:50.549Z,10.30
2022-09-07T04:26:54.651Z,10.33
2022-09-07T04:31:56.388Z,10.44
2022-09-07T04:36:58.159Z,10.40
2022-09-07T04:42:00.082Z,10.49
2022-09-07T04:47:01.904Z,10.72
2022-09-07T05:24:15.125Z,12.00
2022-09-07T05:49:42.929Z,12.65
2022-09-07T05:55:26.221Z,12.77
2022-09-07T06:00:27.304Z,12.79
2022-09-07T06:05:29.072Z,12.89
2022-09-07T06:15:44.107Z,13.33
2022-09-07T06:20:46.097Z,13.59
2022-09-07T06:25:49.325Z,13.88
2022-09-07T06:30:51.110Z,14.08
2022-09-07T06:36:03.511Z,14.38
2022-09-07T06:51:50.412Z,15.27
2022-09-07T06:56:52.256Z,15.60
2022-09-07T07:01:54.070Z,16.08
2022-09-07T07:06:55.883Z,16.59
2022-09-07T07:11:57.723Z,17.05
2022-09-07T07:16:59.524Z,17.40
2022-09-07T07:22:14.304Z,17.72
2022-09-07T07:27:23.227Z,17.95
2022-09-07T07:32:24.979Z,18.24
2022-09-07T07:37:28.277Z,18.47
2022-09-07T07:42:30.263Z,18.66
2022-09-07T07:47:32.296Z,19.00
2022-09-07T07:58:01.687Z,19.73
2022-09-07T08:03:03.414Z,20.08
2022-09-07T08:08:05.381Z,20.16
2022-09-07T08:13:10.666Z,20.33
2022-09-07T08:18:32.347Z,20.52
2022-09-07T08:23:47.678Z,20.78
2022-09-07T08:28:49.434Z,20.88
2022-09-07T08:33:51.283Z,21.13
2022-09-07T08:38:53.705Z,21.40
2022-09-07T08:44:20.555Z,21.46
2022-09-07T08:49:48.656Z,21.64
2022-09-07T08:55:14.346Z,22.01
2022-09-07T09:00:36.356Z,22.50
2022-09-07T09:06:37.260Z,22.94
2022-09-07T09:12:17.544Z,23.30
2022-09-07T09:17:25.062Z,23.61
2022-09-07T09:22:28.572Z,23.93
2022-09-07T09:27:30.237Z,24.17
2022-09-07T09:32:35.875Z,24.38
2022-09-07T09:37:39.905Z,24.67
2022-09-07T09:42:41.821Z,24.79
2022-09-07T09:47:49.606Z,25.08
2022-09-07T09:52:52.833Z,25.22
2022-09-07T10:08:57.922Z,25.63
2022-09-07T10:13:59.718Z,25.99
2022-09-07T10:19:01.560Z,26.25
2022-09-07T10:24:06.234Z,26.42
2022-09-07T10:29:24.922Z,26.47
2022-09-07T10:34:52.245Z,26.28
2022-09-07T10:40:17.042Z,25.98
2022-09-07T10:45:36.875Z,25.91
2022-09-07T10:50:53.610Z,26.28
2022-09-07T10:56:04.403Z,26.43
2022-09-07T11:01:34.518Z,26.72
2022-09-07T11:06:48.278Z,27.36
2022-09-07T11:12:04.715Z,27.41
2022-09-07T11:17:14.332Z,27.32
2022-09-07T11:22:42.289Z,27.55
2022-09-07T11:28:09.359Z,28.00
2022-09-07T11:33:39.120Z,28.27
2022-09-07T11:39:11.652Z,28.41
2022-09-07T11:44:21.823Z,28.68
2022-09-07T11:49:26.060Z,29.10
2022-09-07T11:54:45.847Z,29.31
2022-09-07T12:10:58.219Z,30.11
2022-09-07T12:36:31.500Z,30.99
2022-09-07T12:41:47.869Z,31.38
2022-09-07T12:47:11.206Z,31.54
2022-09-07T12:52:39.872Z,31.59
2022-09-07T12:58:16.795Z,30.93
2022-09-07T13:09:13.611Z,30.80
2022-09-07T13:14:27.923Z,31.38
2022-09-07T13:19:50.915Z,31.96
2022-09-07T13:24:54.491Z,32.78
2022-09-07T13:30:01.674Z,33.52
2022-09-07T13:35:05.408Z,33.59
2022-09-07T13:40:10.945Z,33.68
2022-09-07T13:45:49.385Z,33.85
2022-09-07T14:21:55.890Z,33.58
2022-09-07T14:27:07.770Z,33.54
2022-09-07T14:32:14.511Z,33.36
2022-09-07T14:43:36.824Z,33.08
2022-09-07T14:48:40.276Z,32.78
2022-09-07T14:54:07.402Z,32.80
2022-09-07T14:59:40.578Z,32.69
2022-09-07T15:05:16.384Z,32.45
2022-09-07T15:10:37.009Z,32.32
2022-09-07T15:15:41.645Z,32.18
2022-09-07T15:20:45.041Z,32.07
2022-09-07T15:25:53.658Z,31.91
2022-09-07T15:36:17.630Z,31.35
2022-09-07T15:41:23.961Z,31.04
2022-09-07T15:46:27.303Z,30.90
2022-09-07T16:13:01.508Z,29.73
2022-09-07T16:18:04.625Z,29.35
2022-09-07T16:23:15.845Z,29.00
2022-09-07T16:28:18.395Z,28.27
2022-09-07T16:33:20.272Z,27.22
2022-09-07T16:43:44.121Z,25.39
2022-09-07T16:48:46.017Z,24.62
2022-09-07T16:53:53.844Z,24.04
2022-09-07T16:59:01.838Z,23.55
2022-09-07T17:04:09.809Z,23.09
2022-09-07T17:09:14.617Z,22.65
2022-09-07T17:14:16.622Z,22.24
2022-09-07T17:19:33.647Z,21.81
2022-09-07T17:24:35.568Z,21.45
2022-09-07T17:29:43.646Z,21.09
2022-09-07T17:35:00.522Z,20.76
2022-09-07T17:40:05.815Z,20.48
2022-09-07T17:45:08.359Z,20.21
2022-09-07T17:50:30.407Z,19.97
2022-09-07T17:55:52.427Z,19.73
2022-09-07T18:01:11.445Z,19.49
2022-09-07T18:06:14.892Z,19.29
2022-09-07T18:16:41.491Z,18.85
2022-09-07T18:21:43.849Z,18.73
2022-09-07T18:26:52.206Z,18.57
2022-09-07T18:31:55.147Z,18.43
2022-09-07T18:36:58.456Z,18.31
2022-09-07T18:42:01.581Z,18.19
2022-09-07T18:47:03.848Z,18.18
2022-09-07T18:57:36.498Z,18.10
2022-09-07T19:02:38.547Z,18.01
2022-09-07T19:07:40.585Z,17.91
2022-09-07T19:12:45.662Z,17.78
2022-09-07T19:17:51.785Z,17.64
2022-09-07T19:22:53.498Z,17.57
2022-09-07T19:27:55.695Z,17.54
2022-09-07T19:33:02.094Z,17.52
2022-09-07T19:38:06.085Z,17.52
2022-09-07T19:43:07.904Z,17.49
2022-09-07T19:48:09.751Z,17.42
2022-09-07T19:53:11.694Z,17.35
2022-09-07T19:58:13.742Z,17.23
2022-09-07T20:03:15.449Z,17.15
2022-09-07T20:08:17.225Z,17.07
2022-09-07T20:13:19.340Z,17.04
2022-09-07T20:18:22.386Z,17.03
2022-09-07T20:23:24.173Z,17.01
2022-09-07T20:28:26.277Z,17.05
2022-09-07T20:33:31.269Z,17.03
2022-09-07T20:38:42.761Z,16.93
2022-09-07T20:43:44.650Z,16.80
2022-09-07T20:48:46.424Z,16.68
2022-09-07T20:54:03.396Z,16.61
2022-09-07T20:59:12.500Z,16.55
2022-09-07T21:04:14.391Z,16.55
2022-09-07T21:09:16.246Z,16.57
2022-09-07T21:14:19.249Z,16.59
2022-09-07T21:19:21.127Z,16.56
2022-09-07T21:24:23.327Z,16.46
2022-09-07T21:29:45.440Z,16.34
2022-09-07T21:35:00.822Z,16.24
2022-09-07T21:40:10.736Z,16.15
2022-09-07T21:45:12.589Z,16.03
2022-09-07T21:50:14.584Z,15.92
2022-09-07T21:55:16.626Z,15.85
2022-09-07T22:00:38.487Z,15.78
2022-09-07T22:05:53.824Z,15.75
2022-09-07T22:11:03.658Z,15.69
2022-09-07T22:16:09.743Z,15.65
2022-09-07T22:21:26.939Z,15.58
2022-09-07T22:26:31.712Z,15.50
2022-09-07T22:31:35.774Z,15.39
2022-09-07T22:36:42.011Z,15.33
2022-09-07T22:41:44.824Z,15.25
2022-09-07T22:46:47.125Z,15.22
2022-09-07T22:51:49.133Z,15.17
2022-09-07T22:56:50.919Z,15.09
2022-09-07T23:01:52.667Z,14.98
2022-09-07T23:06:54.465Z,14.82
2022-09-07T23:11:56.158Z,14.63
2022-09-07T23:17:16.841Z,14.45
2022-09-07T23:22:18.614Z,14.34
2022-09-07T23:27:20.572Z,14.28
2022-09-07T23:32:22.340Z,14.25
2022-09-07T23:37:24.149Z,14.23
2022-09-07T23:42:25.873Z,14.23
2022-09-07T23:47:27.671Z,14.19
2022-09-07T23:52:29.722Z,14.09
2022-09-07T23:57:31.626Z,13.95
